createdAt,value
2019-05-06T00:00:25.467Z,4.28
2019-05-06T00:02:54.543Z,4.90
2019-05-06T00:05:25.493Z,4.80
2019-05-06T00:07:54.480Z,5.10
2019-05-06T00:10:31.000Z,5.12
2019-05-06T00:12:59.610Z,5.50
2019-05-06T00:15:28.671Z,5.03
2019-05-06T00:17:57.263Z,5.22
2019-05-06T00:20:25.901Z,5.08
2019-05-06T00:23:14.201Z,5.33
2019-05-06T00:25:44.222Z,5.30
2019-05-06T00:28:30.755Z,5.90
2019-05-06T00:31:10.442Z,5.65
2019-05-06T00:33:31.172Z,5.80
2019-05-06T00:36:00.553Z,6.30
2019-05-06T00:38:29.260Z,6.22
2019-05-06T00:41:03.892Z,5.90
2019-05-06T00:43:34.346Z,6.30
2019-05-06T00:46:04.480Z,6.60
2019-05-06T00:48:34.129Z,6.40
2019-05-06T00:51:04.498Z,7.03
2019-05-06T00:53:34.882Z,7.03
2019-05-06T00:56:04.572Z,6.10
2019-05-06T00:58:34.843Z,6.87
2019-05-06T01:01:04.640Z,6.30
2019-05-06T01:03:34.759Z,6.50
2019-05-06T01:06:03.954Z,6.50
2019-05-06T01:08:34.880Z,7.07
2019-05-06T01:11:04.633Z,7.13
2019-05-06T01:13:35.175Z,7.17
2019-05-06T01:16:04.312Z,7.80
2019-05-06T01:18:34.034Z,7.30
2019-05-06T01:21:11.852Z,7.40
2019-05-06T01:23:43.892Z,7.20
2019-05-06T01:26:15.159Z,7.73
2019-05-06T01:28:44.843Z,8.30
2019-05-06T01:31:14.038Z,7.75
2019-05-06T01:33:45.026Z,8.60
2019-05-06T01:36:14.207Z,9.33
2019-05-06T01:38:44.864Z,8.13
2019-05-06T01:41:27.104Z,7.83
2019-05-06T01:43:55.566Z,9.13
2019-05-06T01:46:24.381Z,8.70
2019-05-06T01:48:53.584Z,8.43
2019-05-06T01:51:24.130Z,9.07
2019-05-06T01:53:54.375Z,8.27
2019-05-06T01:56:24.189Z,9.15
2019-05-06T01:58:53.579Z,8.25
2019-05-06T02:01:24.903Z,7.80
2019-05-06T02:03:53.836Z,8.80
2019-05-06T02:06:24.778Z,9.33
2019-05-06T02:08:54.017Z,8.00
2019-05-06T02:11:24.114Z,8.57
2019-05-06T02:13:53.775Z,8.33
2019-05-06T02:16:24.045Z,8.23
2019-05-06T02:18:54.006Z,8.90
2019-05-06T02:21:30.321Z,9.25
2019-05-06T02:24:04.252Z,9.20
2019-05-06T02:26:34.341Z,8.90
2019-05-06T02:29:04.567Z,8.70
2019-05-06T02:31:46.548Z,9.25
2019-05-06T02:34:19.709Z,8.87
2019-05-06T02:37:08.215Z,10.08
2019-05-06T02:39:36.744Z,9.10
2019-05-06T02:42:07.374Z,9.68
2019-05-06T02:44:36.100Z,9.80
2019-05-06T02:47:09.139Z,9.10
2019-05-06T02:49:44.222Z,10.53
2019-05-06T02:52:14.076Z,9.90
2019-05-06T02:54:42.849Z,10.18
2019-05-06T02:57:13.271Z,9.87
2019-05-06T02:59:44.163Z,11.18
2019-05-06T03:02:14.008Z,10.72
2019-05-06T03:04:43.769Z,10.70
2019-05-06T03:07:14.504Z,10.80
2019-05-06T03:09:44.529Z,10.80
2019-05-06T03:12:13.839Z,11.15
2019-05-06T03:14:43.718Z,10.37
2019-05-06T03:17:14.058Z,10.95
2019-05-06T03:19:45.937Z,10.48
2019-05-06T03:22:28.137Z,11.25
2019-05-06T03:24:58.443Z,10.20
2019-05-06T03:27:26.980Z,11.40
2019-05-06T03:29:55.551Z,11.07
2019-05-06T03:32:30.265Z,12.40
2019-05-06T03:35:15.513Z,11.80
2019-05-06T03:37:24.552Z,12.00
2019-05-06T03:39:53.267Z,11.90
2019-05-06T03:42:23.107Z,11.30
2019-05-06T03:44:53.677Z,10.88
2019-05-06T03:47:26.341Z,11.75
2019-05-06T03:49:55.050Z,11.73
2019-05-06T03:52:25.408Z,11.70
2019-05-06T03:54:54.925Z,12.10
2019-05-06T03:57:23.673Z,12.40
2019-05-06T03:59:53.354Z,11.60
2019-05-06T04:02:24.144Z,13.00
2019-05-06T04:04:56.214Z,12.23
2019-05-06T04:07:23.752Z,12.70
2019-05-06T04:09:53.656Z,12.63
2019-05-06T04:12:23.683Z,13.00
2019-05-06T04:14:54.058Z,13.05
2019-05-06T04:17:25.369Z,12.70
2019-05-06T04:19:56.201Z,12.97
2019-05-06T04:22:26.527Z,13.10
2019-05-06T04:25:05.484Z,14.53
2019-05-06T04:27:38.562Z,13.00
2019-05-06T04:30:07.767Z,13.97
2019-05-06T04:32:36.486Z,13.70
2019-05-06T04:35:05.366Z,14.58
2019-05-06T04:37:34.286Z,14.15
2019-05-06T04:40:04.557Z,14.77
2019-05-06T04:42:34.514Z,14.10
2019-05-06T04:45:04.528Z,13.83
2019-05-06T04:47:33.615Z,14.83
2019-05-06T04:50:04.987Z,14.58
2019-05-06T04:52:34.172Z,14.60
2019-05-06T04:55:03.721Z,14.10
2019-05-06T04:57:33.610Z,14.68
2019-05-06T05:00:04.084Z,15.03
2019-05-06T05:02:33.646Z,14.33
2019-05-06T05:05:04.051Z,13.60
2019-05-06T05:07:33.568Z,16.27
2019-05-06T05:10:12.359Z,17.12
2019-05-06T05:12:52.552Z,15.00
2019-05-06T05:15:22.823Z,14.35
2019-05-06T05:17:53.339Z,16.87
2019-05-06T05:20:36.059Z,14.43
2019-05-06T05:22:52.859Z,16.55
2019-05-06T05:25:22.285Z,16.82
2019-05-06T05:27:52.824Z,16.07
2019-05-06T05:30:22.046Z,15.10
2019-05-06T05:32:52.064Z,15.63
2019-05-06T05:35:22.722Z,15.28
2019-05-06T05:37:52.962Z,14.47
2019-05-06T05:40:22.551Z,14.10
2019-05-06T05:42:55.787Z,13.45
2019-05-06T05:45:27.371Z,12.72
2019-05-06T05:47:57.610Z,13.72
2019-05-06T05:50:27.760Z,12.10
2019-05-06T05:52:56.381Z,11.73
2019-05-06T05:55:25.114Z,11.83
2019-05-06T05:57:53.694Z,11.90
2019-05-06T06:00:23.889Z,12.50
2019-05-06T06:02:53.005Z,13.03
2019-05-06T06:07:52.880Z,14.67
2019-05-06T06:10:34.595Z,13.93
2019-05-06T06:13:03.159Z,13.20
2019-05-06T06:15:48.799Z,13.80
2019-05-06T06:18:30.658Z,14.97
2019-05-06T06:21:17.348Z,14.28
2019-05-06T06:23:35.979Z,13.50
2019-05-06T06:26:04.911Z,14.93
2019-05-06T06:28:33.528Z,14.30
2019-05-06T06:31:06.522Z,14.53
2019-05-06T06:33:35.062Z,14.68
2019-05-06T06:36:23.108Z,13.80
2019-05-06T06:38:53.460Z,14.07
2019-05-06T06:41:22.827Z,13.10
2019-05-06T06:43:53.308Z,13.30
2019-05-06T06:46:22.474Z,12.73
2019-05-06T06:48:52.721Z,12.53
2019-05-06T06:51:23.382Z,12.53
2019-05-06T06:53:52.955Z,12.37
2019-05-06T06:56:23.575Z,12.33
2019-05-06T06:59:10.132Z,12.20
2019-05-06T07:01:42.203Z,11.70
2019-05-06T07:04:13.505Z,10.90
2019-05-06T07:06:44.204Z,11.10
2019-05-06T07:09:12.889Z,10.43
2019-05-06T07:11:42.803Z,11.50
2019-05-06T07:14:13.578Z,11.47
2019-05-06T07:16:42.993Z,10.30
2019-05-06T07:19:13.563Z,11.53
2019-05-06T07:21:46.841Z,11.70
2019-05-06T07:24:15.467Z,12.37
2019-05-06T07:26:48.572Z,13.08
2019-05-06T07:29:23.516Z,12.70
2019-05-06T07:31:48.199Z,12.87
2019-05-06T07:34:16.850Z,13.07
2019-05-06T07:36:45.380Z,12.55
2019-05-06T07:39:15.369Z,13.83
2019-05-06T07:41:54.937Z,13.90
2019-05-06T07:44:34.320Z,13.68
2019-05-06T07:47:04.500Z,13.57
2019-05-06T07:49:33.286Z,13.10
2019-05-06T07:52:02.867Z,13.13
2019-05-06T07:54:32.993Z,12.75
2019-05-06T07:57:02.424Z,12.37
2019-05-06T07:59:33.275Z,11.30
2019-05-06T08:02:02.253Z,11.22
2019-05-06T08:04:32.441Z,11.22
2019-05-06T08:07:03.125Z,10.82
2019-05-06T08:09:32.569Z,10.20
2019-05-06T08:12:02.829Z,10.13
2019-05-06T08:14:43.499Z,10.37
2019-05-06T08:17:14.761Z,10.13
2019-05-06T08:19:43.230Z,11.55
2019-05-06T08:22:22.701Z,10.50
2019-05-06T08:24:53.205Z,10.20
2019-05-06T08:27:22.730Z,10.90
2019-05-06T08:29:52.666Z,11.50
2019-05-06T08:32:22.809Z,9.90
2019-05-06T08:34:52.419Z,10.73
2019-05-06T08:37:25.694Z,10.63
2019-05-06T08:39:54.485Z,9.63
2019-05-06T08:42:23.220Z,9.40
2019-05-06T08:44:53.062Z,9.90
2019-05-06T08:47:22.370Z,9.30
2019-05-06T08:50:02.437Z,9.67
2019-05-06T08:52:32.869Z,9.33
2019-05-06T08:55:04.339Z,9.07
2019-05-06T08:57:32.440Z,8.80
2019-05-06T09:00:03.394Z,8.60
2019-05-06T09:02:32.424Z,9.17
2019-05-06T09:05:02.977Z,8.83
2019-05-06T09:07:32.038Z,9.80
2019-05-06T09:10:02.605Z,9.40
2019-05-06T09:12:32.800Z,8.93
2019-05-06T09:15:03.254Z,9.20
2019-05-06T09:17:33.050Z,9.13
2019-05-06T09:20:02.646Z,9.97
2019-05-06T09:22:32.574Z,9.40
2019-05-06T09:25:02.462Z,9.08
2019-05-06T09:27:47.849Z,8.70
2019-05-06T09:30:36.068Z,9.10
2019-05-06T09:33:04.842Z,9.23
2019-05-06T09:35:33.295Z,9.07
2019-05-06T09:38:02.277Z,9.27
2019-05-06T09:40:31.914Z,9.20
2019-05-06T09:43:04.462Z,8.30
2019-05-06T09:45:32.877Z,8.00
2019-05-06T09:48:03.624Z,8.45
2019-05-06T09:50:39.738Z,8.70
2019-05-06T09:53:10.695Z,9.03
2019-05-06T09:55:47.903Z,7.95
2019-05-06T09:58:16.500Z,8.35
2019-05-06T10:00:49.999Z,7.80
2019-05-06T10:03:18.535Z,8.40
2019-05-06T10:05:47.163Z,8.83
2019-05-06T10:08:15.789Z,8.17
2019-05-06T10:10:56.183Z,8.55
2019-05-06T10:13:14.803Z,8.13
2019-05-06T10:15:43.608Z,8.03
2019-05-06T10:18:13.423Z,7.25
2019-05-06T10:20:46.293Z,8.30
2019-05-06T10:23:15.172Z,7.30
2019-05-06T10:25:44.345Z,8.03
2019-05-06T10:28:16.375Z,8.15
2019-05-06T10:30:44.875Z,7.78
2019-05-06T10:33:23.582Z,7.62
2019-05-06T10:35:53.024Z,7.90
2019-05-06T10:38:46.975Z,7.23
2019-05-06T10:41:18.580Z,7.13
2019-05-06T10:44:06.708Z,6.70
2019-05-06T10:46:35.871Z,7.35
2019-05-06T10:49:04.420Z,8.30
2019-05-06T10:51:37.032Z,8.30
2019-05-06T10:54:05.971Z,7.20
2019-05-06T10:56:49.795Z,7.20
2019-05-06T10:59:08.260Z,6.60
2019-05-06T11:01:38.427Z,6.55
2019-05-06T11:04:06.984Z,7.00
2019-05-06T11:06:35.538Z,7.20
2019-05-06T11:09:07.239Z,7.20
2019-05-06T11:11:38.715Z,6.87
2019-05-06T11:14:06.376Z,7.05
2019-05-06T11:16:34.924Z,6.60
2019-05-06T11:19:05.210Z,6.10
2019-05-06T11:21:33.588Z,6.53
2019-05-06T11:24:05.996Z,6.53
2019-05-06T11:26:32.253Z,6.70
2019-05-06T11:29:05.083Z,6.40
2019-05-06T11:31:34.267Z,6.43
2019-05-06T11:34:22.939Z,6.30
2019-05-06T11:37:05.035Z,6.00
2019-05-06T11:39:33.487Z,7.13
2019-05-06T11:42:23.699Z,6.72
2019-05-06T11:44:32.410Z,6.33
2019-05-06T11:47:03.220Z,7.20
2019-05-06T11:49:32.660Z,6.90
2019-05-06T11:52:02.331Z,6.80
2019-05-06T11:54:33.556Z,7.15
2019-05-06T11:57:02.924Z,8.88
2019-05-06T11:59:31.521Z,9.97
2019-05-06T12:02:02.659Z,9.45
2019-05-06T12:04:32.909Z,9.80
2019-05-06T12:07:10.177Z,10.40
2019-05-06T12:09:33.087Z,10.43
2019-05-06T12:12:03.260Z,10.83
2019-05-06T12:14:32.096Z,10.53
2019-05-06T12:17:02.259Z,10.80
2019-05-06T12:19:32.470Z,11.28
2019-05-06T12:22:01.097Z,10.95
2019-05-06T12:24:29.568Z,10.70
2019-05-06T12:26:58.054Z,10.30
2019-05-06T12:29:26.530Z,10.17
2019-05-06T12:32:03.638Z,9.38
2019-05-06T12:34:32.531Z,9.70
2019-05-06T12:37:02.942Z,9.30
2019-05-06T12:39:32.983Z,9.43
2019-05-06T12:42:19.708Z,8.33
2019-05-06T12:44:49.868Z,8.30
2019-05-06T12:47:22.760Z,7.90
2019-05-06T12:49:53.372Z,8.48
2019-05-06T12:52:23.074Z,8.40
2019-05-06T12:54:54.272Z,7.20
2019-05-06T12:57:23.376Z,8.10
2019-05-06T12:59:53.056Z,7.70
2019-05-06T13:02:23.752Z,8.00
2019-05-06T13:04:59.662Z,7.72
2019-05-06T13:07:23.907Z,7.08
2019-05-06T13:09:52.982Z,7.40
2019-05-06T13:12:23.407Z,7.53
2019-05-06T13:14:52.715Z,7.70
2019-05-06T13:17:23.032Z,8.55
2019-05-06T13:19:52.349Z,7.67
2019-05-06T13:22:24.454Z,8.40
2019-05-06T13:24:53.122Z,9.30
2019-05-06T13:27:23.643Z,8.90
2019-05-06T13:29:52.798Z,8.00
2019-05-06T13:32:22.892Z,7.25
2019-05-06T13:34:52.637Z,8.07
2019-05-06T13:37:22.839Z,8.50
2019-05-06T13:39:52.893Z,7.53
2019-05-06T13:42:23.400Z,7.72
2019-05-06T13:44:51.943Z,8.30
2019-05-06T13:47:38.152Z,7.90
2019-05-06T13:50:08.028Z,7.75
2019-05-06T13:52:38.248Z,7.10
2019-05-06T13:55:07.858Z,7.67
2019-05-06T13:57:39.063Z,7.30
2019-05-06T14:00:07.189Z,7.17
2019-05-06T14:02:37.450Z,7.90
2019-05-06T14:05:07.424Z,7.60
2019-05-06T14:07:36.056Z,8.40
2019-05-06T14:10:06.655Z,8.45
2019-05-06T14:12:35.193Z,8.03
2019-05-06T14:15:05.487Z,8.77
2019-05-06T14:17:34.018Z,8.70
2019-05-06T14:20:02.821Z,8.53
2019-05-06T14:22:32.623Z,8.00
2019-05-06T14:25:19.012Z,8.03
2019-05-06T14:27:52.450Z,7.73
2019-05-06T14:30:39.866Z,7.62
2019-05-06T14:33:15.102Z,7.90
2019-05-06T14:35:40.312Z,7.53
2019-05-06T14:38:08.792Z,7.87
2019-05-06T14:40:54.971Z,7.75
2019-05-06T14:43:23.451Z,7.40
2019-05-06T14:45:53.026Z,7.30
2019-05-06T14:48:22.454Z,7.47
2019-05-06T14:50:56.786Z,7.05
2019-05-06T14:53:23.736Z,6.80
2019-05-06T14:55:53.154Z,6.60
2019-05-06T14:58:22.803Z,6.90
2019-05-06T15:00:53.330Z,7.07
2019-05-06T15:03:22.254Z,6.90
2019-05-06T15:05:50.812Z,6.70
2019-05-06T15:08:19.566Z,6.70
2019-05-06T15:10:49.493Z,6.80
2019-05-06T15:13:18.119Z,7.42
2019-05-06T15:15:46.750Z,6.83
2019-05-06T15:18:15.381Z,6.95
2019-05-06T15:20:44.925Z,7.13
2019-05-06T15:23:13.490Z,6.58
2019-05-06T15:25:42.024Z,6.92
2019-05-06T15:28:12.952Z,6.50
2019-05-06T15:30:45.084Z,6.70
2019-05-06T15:33:15.288Z,6.83
2019-05-06T15:35:45.541Z,7.03
2019-05-06T15:38:15.743Z,6.57
2019-05-06T15:40:44.294Z,6.70
2019-05-06T15:43:12.845Z,6.57
2019-05-06T15:45:42.964Z,6.40
2019-05-06T15:48:12.849Z,6.53
2019-05-06T15:50:45.376Z,6.80
2019-05-06T15:53:12.575Z,6.45
2019-05-06T15:55:43.511Z,6.67
2019-05-06T15:58:12.425Z,5.50
2019-05-06T16:00:42.472Z,5.40
2019-05-06T16:03:12.936Z,6.10
2019-05-06T16:05:43.518Z,6.27
2019-05-06T16:08:11.507Z,6.37
2019-05-06T16:10:52.019Z,6.50
2019-05-06T16:13:12.766Z,6.30
2019-05-06T16:15:42.343Z,6.00
2019-05-06T16:18:12.951Z,5.93
2019-05-06T16:20:41.188Z,6.30
2019-05-06T16:23:11.432Z,5.77
2019-05-06T16:25:40.109Z,5.50
2019-05-06T16:28:08.638Z,5.62
2019-05-06T16:30:37.192Z,5.90
2019-05-06T16:33:06.056Z,5.87
2019-05-06T16:35:35.138Z,5.97
2019-05-06T16:38:03.855Z,5.20
2019-05-06T16:40:33.659Z,6.03
2019-05-06T16:43:02.276Z,5.80
2019-05-06T16:45:30.732Z,5.40
2019-05-06T16:47:59.568Z,5.40
2019-05-06T16:50:29.761Z,5.00
2019-05-06T16:52:58.741Z,5.50
2019-05-06T16:55:45.391Z,5.40
2019-05-06T16:58:15.653Z,6.20
2019-05-06T17:00:44.188Z,5.58
2019-05-06T17:03:14.627Z,5.30
2019-05-06T17:05:45.132Z,5.80
2019-05-06T17:08:13.691Z,5.30
2019-05-06T17:10:43.297Z,5.30
2019-05-06T17:13:12.634Z,5.20
2019-05-06T17:15:41.367Z,4.95
2019-05-06T17:18:12.137Z,5.50
2019-05-06T17:20:40.187Z,5.40
2019-05-06T17:23:09.051Z,5.55
2019-05-06T17:25:38.347Z,5.55
2019-05-06T17:28:14.525Z,5.40
2019-05-06T17:30:45.561Z,5.30
2019-05-06T17:33:33.444Z,5.20
2019-05-06T17:36:03.061Z,5.40
2019-05-06T17:38:33.400Z,5.40
2019-05-06T17:41:03.003Z,5.60
2019-05-06T17:43:32.289Z,4.80
2019-05-06T17:46:03.937Z,5.00
2019-05-06T17:48:42.672Z,5.20
2019-05-06T17:51:21.592Z,5.30
2019-05-06T17:53:52.315Z,4.97
2019-05-06T17:56:22.248Z,4.50
2019-05-06T17:58:52.964Z,4.30
2019-05-06T18:01:23.564Z,4.60
2019-05-06T18:03:52.652Z,4.30
2019-05-06T18:06:22.966Z,4.75
2019-05-06T18:08:52.837Z,4.92
2019-05-06T18:11:22.406Z,4.65
2019-05-06T18:13:52.106Z,4.37
2019-05-06T18:16:22.288Z,4.93
2019-05-06T18:18:52.318Z,5.83
2019-05-06T18:21:22.955Z,5.50
2019-05-06T18:23:52.287Z,4.78
2019-05-06T18:26:22.801Z,5.10
2019-05-06T18:28:52.724Z,5.10
2019-05-06T18:31:22.157Z,5.60
2019-05-06T18:33:52.829Z,5.80
2019-05-06T18:36:22.612Z,5.22
2019-05-06T18:38:52.588Z,5.10
2019-05-06T18:41:23.421Z,4.80
2019-05-06T18:43:53.458Z,4.70
2019-05-06T18:46:21.849Z,5.00
2019-05-06T18:48:52.352Z,5.40
2019-05-06T18:51:22.423Z,4.90
2019-05-06T18:53:52.370Z,5.33
2019-05-06T18:56:22.404Z,5.28
2019-05-06T18:58:53.064Z,5.00
2019-05-06T19:01:23.251Z,5.40
2019-05-06T19:03:53.375Z,5.20
2019-05-06T19:06:23.246Z,4.90
2019-05-06T19:09:09.730Z,5.40
2019-05-06T19:11:38.625Z,5.65
2019-05-06T19:14:07.195Z,4.97
2019-05-06T19:16:48.881Z,5.80
2019-05-06T19:19:06.235Z,5.80
2019-05-06T19:21:34.762Z,6.10
2019-05-06T19:24:03.269Z,5.90
2019-05-06T19:26:32.331Z,5.70
2019-05-06T19:29:04.340Z,5.87
2019-05-06T19:31:32.581Z,5.70
2019-05-06T19:34:03.242Z,5.33
2019-05-06T19:36:34.601Z,5.60
2019-05-06T19:39:02.275Z,6.53
2019-05-06T19:41:33.170Z,6.40
2019-05-06T19:44:02.213Z,6.28
2019-05-06T19:46:32.676Z,6.10
2019-05-06T19:49:02.046Z,7.00
2019-05-06T19:51:32.870Z,6.20
2019-05-06T19:54:02.269Z,8.03
2019-05-06T19:56:31.115Z,6.80
2019-05-06T19:59:01.976Z,6.87
2019-05-06T20:01:32.180Z,6.47
2019-05-06T20:04:02.510Z,6.70
2019-05-06T20:06:38.295Z,6.27
2019-05-06T20:09:26.026Z,6.50
2019-05-06T20:11:56.361Z,6.70
2019-05-06T20:14:25.709Z,6.70
2019-05-06T20:16:54.208Z,6.80
2019-05-06T20:19:30.874Z,7.80
2019-05-06T20:21:52.896Z,7.40
2019-05-06T20:24:22.482Z,8.00
2019-05-06T20:26:52.707Z,8.53
2019-05-06T20:29:22.399Z,7.90
2019-05-06T20:31:53.331Z,8.03
2019-05-06T20:34:22.367Z,8.70
2019-05-06T20:36:52.783Z,7.70
2019-05-06T20:39:22.971Z,8.00
2019-05-06T20:41:51.733Z,8.00
2019-05-06T20:44:20.288Z,7.63
2019-05-06T20:46:48.834Z,8.50
2019-05-06T20:49:17.375Z,8.00
2019-05-06T20:51:45.947Z,9.00
2019-05-06T20:54:14.421Z,9.10
2019-05-06T20:56:43.219Z,8.50
2019-05-06T20:59:12.266Z,8.43
2019-05-06T21:01:42.447Z,8.60
2019-05-06T21:04:13.087Z,8.45
2019-05-06T21:06:42.586Z,9.00
2019-05-06T21:09:12.453Z,8.65
2019-05-06T21:11:42.107Z,8.88
2019-05-06T21:14:13.055Z,8.43
2019-05-06T21:16:42.266Z,9.20
2019-05-06T21:19:12.576Z,8.70
2019-05-06T21:21:42.982Z,8.83
2019-05-06T21:24:13.013Z,8.50
2019-05-06T21:26:42.518Z,8.50
2019-05-06T21:29:12.759Z,8.43
2019-05-06T21:31:42.286Z,8.80
2019-05-06T21:34:12.865Z,8.48
2019-05-06T21:36:42.281Z,8.50
2019-05-06T21:39:13.000Z,9.27
2019-05-06T21:41:42.666Z,8.70
2019-05-06T21:44:13.194Z,9.50
2019-05-06T21:46:42.928Z,9.50
2019-05-06T21:49:12.136Z,8.97
2019-05-06T21:51:42.492Z,9.20
2019-05-06T21:54:12.562Z,9.90
2019-05-06T21:56:42.460Z,9.98
2019-05-06T21:59:12.981Z,10.05
2019-05-06T22:01:43.013Z,10.20
2019-05-06T22:04:12.872Z,10.00
2019-05-06T22:06:42.899Z,10.10
2019-05-06T22:09:12.768Z,10.60
2019-05-06T22:11:42.424Z,10.40
2019-05-06T22:14:12.353Z,10.60
2019-05-06T22:16:43.487Z,10.38
2019-05-06T22:19:12.092Z,10.30
2019-05-06T22:21:48.516Z,10.20
2019-05-06T22:24:18.847Z,10.30
2019-05-06T22:26:47.316Z,10.40
2019-05-06T22:29:15.804Z,10.70
2019-05-06T22:31:44.267Z,10.10
2019-05-06T22:34:13.465Z,10.08
2019-05-06T22:36:43.011Z,10.00
2019-05-06T22:39:12.131Z,10.43
2019-05-06T22:41:40.687Z,9.90
2019-05-06T22:44:13.850Z,9.55
2019-05-06T22:46:39.372Z,10.10
2019-05-06T22:49:07.853Z,10.60
2019-05-06T22:51:36.417Z,10.00
2019-05-06T22:54:04.959Z,10.70
2019-05-06T22:56:33.487Z,10.00
2019-05-06T22:59:03.219Z,9.90
2019-05-06T23:01:54.319Z,10.72
2019-05-06T23:04:24.173Z,10.00
2019-05-06T23:06:52.816Z,10.57
2019-05-06T23:09:22.896Z,9.97
2019-05-06T23:11:51.579Z,10.50
2019-05-06T23:14:28.811Z,10.25
2019-05-06T23:16:52.110Z,10.15
2019-05-06T23:19:21.984Z,9.80
2019-05-06T23:21:53.187Z,10.40
2019-05-06T23:24:22.542Z,9.40
2019-05-06T23:26:54.358Z,10.35
2019-05-06T23:29:22.424Z,9.67
2019-05-06T23:31:52.132Z,9.60
2019-05-06T23:34:22.946Z,9.40
2019-05-06T23:37:02.453Z,9.40
2019-05-06T23:40:13.258Z,10.18
2019-05-06T23:43:17.864Z,9.80
2019-05-06T23:46:22.806Z,10.90
2019-05-06T23:49:27.736Z,9.85
2019-05-06T23:52:32.251Z,10.03
2019-05-06T23:55:36.547Z,9.80
2019-05-06T23:58:04.027Z,10.53
